Time;durP1;ratioP1;P1;durP2;ratioP2;P2;SDS_P1;SDS_P2;PMS_P1;PMS_P2;Temp;Humidity;BMP_temperature;BMP_pressure;BME280_temperature;BME280_humidity;BME280_pressure;Samples;Min_cycle;Max_cycle;Signal;HPM_P1;HPM_P2
2021/08/11 00:02:19;;;;;;;1.20;1.00;;;;;;;;;;5008577;28;20047;-52
2021/08/11 00:04:46;;;;;;;5.07;1.40;;;;;;;;;;5007751;28;20042;-54
2021/08/11 00:07:13;;;;;;;2.92;0.90;;;;;;;;;;5011633;28;20116;-49
2021/08/11 00:09:39;;;;;;;2.22;1.08;;;;;;;;;;5002161;28;20030;-52
2021/08/11 00:12:06;;;;;;;4.75;1.00;;;;;;;;;;4995431;28;20046;-50
2021/08/11 00:14:33;;;;;;;1.38;1.27;;;;;;;;;;5007845;28;20037;-51
2021/08/11 00:17:00;;;;;;;2.78;1.00;;;;;;;;;;5008737;28;20121;-53
2021/08/11 00:19:26;;;;;;;2.75;1.00;;;;;;;;;;5010364;28;20061;-53
2021/08/11 00:21:53;;;;;;;1.15;0.90;;;;;;;;;;5010128;28;20472;-52
2021/08/11 00:24:20;;;;;;;1.73;1.05;;;;;;;;;;5002463;28;20060;-52
2021/08/11 00:26:47;;;;;;;2.25;1.10;;;;;;;;;;5008003;28;20046;-53
2021/08/11 00:29:13;;;;;;;2.20;1.65;;;;;;;;;;5008523;28;20038;-52
2021/08/11 00:31:40;;;;;;;1.33;1.20;;;;;;;;;;5010236;28;20457;-50
2021/08/11 00:34:07;;;;;;;1.45;1.00;;;;;;;;;;5010242;28;20439;-51
2021/08/11 00:36:33;;;;;;;3.05;0.98;;;;;;;;;;4991957;28;20054;-51
2021/08/11 00:39:00;;;;;;;4.55;1.38;;;;;;;;;;5008977;28;20442;-52
2021/08/11 00:41:27;;;;;;;2.95;0.95;;;;;;;;;;5009000;28;20050;-54
2021/08/11 00:43:54;;;;;;;3.83;1.52;;;;;;;;;;5009273;28;20084;-53
2021/08/11 00:46:20;;;;;;;8.27;1.10;;;;;;;;;;5009221;28;20386;-53
2021/08/11 00:48:47;;;;;;;3.33;1.05;;;;;;;;;;5007434;28;20042;-53
2021/08/11 00:51:14;;;;;;;2.50;1.08;;;;;;;;;;5010166;28;20437;-53
2021/08/11 00:53:45;;;;;;;4.93;1.20;;;;;;;;;;5005791;28;20682;-53
2021/08/11 00:56:12;;;;;;;2.35;1.00;;;;;;;;;;5000639;28;20101;-53
2021/08/11 00:58:39;;;;;;;2.60;1.10;;;;;;;;;;5004430;28;20034;-53
2021/08/11 01:01:06;;;;;;;3.17;1.00;;;;;;;;;;4992222;28;20201;-52
2021/08/11 01:03:33;;;;;;;1.88;0.93;;;;;;;;;;5009355;28;20137;-52
2021/08/11 01:06:02;;;;;;;1.27;0.93;;;;;;;;;;5008263;28;20029;-53
2021/08/11 01:08:28;;;;;;;3.38;1.20;;;;;;;;;;5004847;28;20550;-52
2021/08/11 01:10:56;;;;;;;3.20;1.15;;;;;;;;;;5007773;28;20048;-51
2021/08/11 01:13:23;;;;;;;1.83;1.15;;;;;;;;;;4994343;28;20042;-54
2021/08/11 01:15:49;;;;;;;5.65;1.00;;;;;;;;;;5008808;28;20401;-53
2021/08/11 01:18:17;;;;;;;4.10;1.30;;;;;;;;;;5008069;28;20041;-52
2021/08/11 01:21:04;;;;;;;5.15;1.00;;;;;;;;;;5004014;28;20048;-52
2021/08/11 01:23:44;;;;;;;4.20;1.00;;;;;;;;;;5006549;28;20530;-53
2021/08/11 01:26:19;;;;;;;3.20;1.10;;;;;;;;;;5000191;28;20036;-51
2021/08/11 01:28:54;;;;;;;6.10;1.75;;;;;;;;;;4994509;28;20045;-52
2021/08/11 01:31:27;;;;;;;3.55;1.10;;;;;;;;;;5004564;28;20043;-53
2021/08/11 01:34:00;;;;;;;2.17;1.00;;;;;;;;;;4996824;28;20061;-52
2021/08/11 01:36:26;;;;;;;;;;;;;;;;;;5007380;28;20061;-54
2021/08/11 01:39:01;;;;;;;4.38;1.08;;;;;;;;;;5007275;28;19929;-54
2021/08/11 01:41:29;;;;;;;1.92;1.30;;;;;;;;;;5007310;28;20034;-51
2021/08/11 01:43:57;;;;;;;3.05;1.00;;;;;;;;;;5005481;28;20104;-53
2021/08/11 01:46:25;;;;;;;8.40;1.75;;;;;;;;;;5008649;28;20099;-53
2021/08/11 01:48:52;;;;;;;3.80;1.10;;;;;;;;;;5010117;28;20092;-51
2021/08/11 01:51:19;;;;;;;5.72;1.00;;;;;;;;;;5007198;28;20088;-51
2021/08/11 01:53:46;;;;;;;3.38;1.10;;;;;;;;;;5008073;28;20053;-51
2021/08/11 01:56:13;;;;;;;2.63;1.20;;;;;;;;;;5004355;28;20038;-52
2021/08/11 01:58:40;;;;;;;3.70;1.00;;;;;;;;;;4999792;28;20498;-51
2021/08/11 02:01:08;;;;;;;5.63;1.10;;;;;;;;;;4992429;28;20057;-53
2021/08/11 02:03:36;;;;;;;2.85;1.10;;;;;;;;;;5007136;28;20153;-52
2021/08/11 02:06:03;;;;;;;2.60;1.20;;;;;;;;;;5009910;28;20136;-52
2021/08/11 02:08:30;;;;;;;1.95;1.20;;;;;;;;;;5012649;28;20038;-53
2021/08/11 02:10:58;;;;;;;5.28;0.90;;;;;;;;;;5012515;28;20045;-52
2021/08/11 02:13:27;;;;;;;3.05;1.23;;;;;;;;;;4996912;28;20069;-54
2021/08/11 02:15:53;;;;;;;4.60;1.23;;;;;;;;;;5007446;28;20125;-50
2021/08/11 02:18:20;;;;;;;1.63;0.90;;;;;;;;;;5009830;28;20068;-51
2021/08/11 02:20:49;;;;;;;3.85;1.20;;;;;;;;;;5013598;28;20050;-52
2021/08/11 02:23:16;;;;;;;3.55;1.20;;;;;;;;;;5009704;28;20049;-52
2021/08/11 02:26:03;;;;;;;2.83;1.15;;;;;;;;;;5010469;28;20092;-53
2021/08/11 02:28:46;;;;;;;1.92;0.90;;;;;;;;;;5023806;28;20045;-53
2021/08/11 02:31:15;;;;;;;3.17;0.90;;;;;;;;;;5028104;28;20053;-53
2021/08/11 02:33:51;;;;;;;3.67;1.13;;;;;;;;;;5029420;28;20621;-51
2021/08/11 02:36:22;;;;;;;1.48;1.00;;;;;;;;;;5022678;28;20073;-52
2021/08/11 02:38:51;;;;;;;2.97;1.20;;;;;;;;;;5019740;28;20041;-53
2021/08/11 02:41:21;;;;;;;1.60;0.90;;;;;;;;;;5029703;28;20049;-52
2021/08/11 02:43:53;;;;;;;3.47;1.63;;;;;;;;;;5027707;28;20051;-53
2021/08/11 02:46:21;;;;;;;4.05;1.40;;;;;;;;;;5028422;28;20147;-49
2021/08/11 02:48:59;;;;;;;1.65;1.00;;;;;;;;;;5030594;28;20049;-52
2021/08/11 02:51:26;;;;;;;1.27;1.00;;;;;;;;;;5028090;28;20106;-53
2021/08/11 02:53:54;;;;;;;3.35;1.30;;;;;;;;;;5029470;28;20705;-50
2021/08/11 02:56:21;;;;;;;1.35;1.00;;;;;;;;;;5029459;28;20091;-49
2021/08/11 02:58:48;;;;;;;1.20;1.10;;;;;;;;;;5018056;28;20053;-52
2021/08/11 03:01:15;;;;;;;1.33;0.98;;;;;;;;;;5028506;28;20103;-51
2021/08/11 03:03:42;;;;;;;3.58;1.20;;;;;;;;;;5027088;28;20060;-53
2021/08/11 03:06:09;;;;;;;1.10;1.00;;;;;;;;;;5000398;28;20137;-53
2021/08/11 03:08:36;;;;;;;3.20;1.13;;;;;;;;;;5005716;28;20473;-52
2021/08/11 03:11:03;;;;;;;2.03;1.50;;;;;;;;;;5011612;28;20065;-53
2021/08/11 03:13:30;;;;;;;1.60;0.90;;;;;;;;;;5002849;28;20038;-52
2021/08/11 03:15:57;;;;;;;3.70;1.08;;;;;;;;;;5012065;28;20057;-53
2021/08/11 03:18:24;;;;;;;2.33;1.00;;;;;;;;;;5009808;28;20084;-53
2021/08/11 03:20:50;;;;;;;3.30;1.20;;;;;;;;;;5003275;28;20046;-51
2021/08/11 03:23:17;;;;;;;1.58;1.02;;;;;;;;;;5009776;28;20041;-54
2021/08/11 03:25:44;;;;;;;4.28;1.00;;;;;;;;;;5006378;28;20050;-53
2021/08/11 03:28:11;;;;;;;2.13;1.48;;;;;;;;;;5010834;28;20050;-51
2021/08/11 03:30:38;;;;;;;4.82;1.17;;;;;;;;;;5011745;28;20042;-52
2021/08/11 03:33:05;;;;;;;2.50;0.93;;;;;;;;;;5011488;28;20073;-53
2021/08/11 03:35:31;;;;;;;1.85;1.10;;;;;;;;;;5010967;28;20100;-51
2021/08/11 03:37:58;;;;;;;2.70;1.02;;;;;;;;;;4995951;28;20057;-52
2021/08/11 03:40:24;;;;;;;1.48;1.38;;;;;;;;;;5010828;28;20072;-52
2021/08/11 03:42:51;;;;;;;3.80;0.90;;;;;;;;;;5009636;28;20041;-53
2021/08/11 03:45:19;;;;;;;5.80;1.63;;;;;;;;;;5009827;28;20057;-50
2021/08/11 03:47:46;;;;;;;1.42;1.33;;;;;;;;;;5011349;28;20042;-51
2021/08/11 03:50:13;;;;;;;1.63;1.38;;;;;;;;;;5006979;28;20106;-51
2021/08/11 03:52:40;;;;;;;2.53;1.10;;;;;;;;;;5005102;28;20487;-53
2021/08/11 03:55:07;;;;;;;3.67;1.25;;;;;;;;;;5004025;28;20048;-52
2021/08/11 03:57:34;;;;;;;3.10;1.95;;;;;;;;;;5004650;28;20045;-51
2021/08/11 04:00:01;;;;;;;4.93;1.70;;;;;;;;;;5009923;28;20490;-54
2021/08/11 04:02:27;;;;;;;1.10;1.00;;;;;;;;;;5009426;28;20096;-54
2021/08/11 04:04:54;;;;;;;4.88;1.20;;;;;;;;;;5007130;28;20515;-54
2021/08/11 04:07:21;;;;;;;1.25;1.13;;;;;;;;;;5010163;28;20117;-53
2021/08/11 04:09:48;;;;;;;4.35;1.70;;;;;;;;;;5012932;28;20581;-52
2021/08/11 04:12:15;;;;;;;1.55;1.23;;;;;;;;;;5010470;28;20100;-51
2021/08/11 04:14:41;;;;;;;2.90;1.50;;;;;;;;;;5008386;28;20498;-54
2021/08/11 04:17:08;;;;;;;2.70;1.52;;;;;;;;;;5010566;28;20045;-53
2021/08/11 04:19:35;;;;;;;4.00;1.35;;;;;;;;;;5006613;28;20049;-51
2021/08/11 04:22:02;;;;;;;1.45;1.35;;;;;;;;;;5010450;28;20498;-53
2021/08/11 04:24:28;;;;;;;1.20;1.10;;;;;;;;;;5007059;28;20049;-52
2021/08/11 04:26:55;;;;;;;4.50;1.30;;;;;;;;;;4999444;28;20045;-53
2021/08/11 04:29:22;;;;;;;2.47;1.20;;;;;;;;;;5005167;28;20369;-51
2021/08/11 04:31:49;;;;;;;1.58;1.15;;;;;;;;;;5000309;28;20111;-53
2021/08/11 04:34:15;;;;;;;2.85;1.30;;;;;;;;;;4995919;28;20071;-53
2021/08/11 04:36:42;;;;;;;2.53;1.55;;;;;;;;;;5006228;28;20050;-53
2021/08/11 04:39:09;;;;;;;2.88;1.30;;;;;;;;;;5004228;28;20088;-53
2021/08/11 04:41:35;;;;;;;2.47;1.77;;;;;;;;;;5001244;28;20043;-53
2021/08/11 04:44:03;;;;;;;1.63;1.30;;;;;;;;;;5002956;28;20370;-52
2021/08/11 04:46:30;;;;;;;2.58;1.67;;;;;;;;;;5010531;28;20092;-52
2021/08/11 04:48:56;;;;;;;1.95;1.40;;;;;;;;;;5007809;28;20529;-52
2021/08/11 04:51:23;;;;;;;4.60;1.80;;;;;;;;;;5008981;28;20093;-53
2021/08/11 04:53:50;;;;;;;2.20;1.58;;;;;;;;;;5000856;28;20493;-53
2021/08/11 04:56:18;;;;;;;7.03;1.38;;;;;;;;;;5003956;28;20433;-54
2021/08/11 04:58:45;;;;;;;6.82;2.85;;;;;;;;;;5009243;28;20048;-53
2021/08/11 05:01:12;;;;;;;2.35;1.70;;;;;;;;;;5008529;28;20050;-50
2021/08/11 05:03:39;;;;;;;2.45;1.92;;;;;;;;;;5009994;28;20042;-51
2021/08/11 05:06:07;;;;;;;7.05;1.52;;;;;;;;;;5002545;28;20081;-52
2021/08/11 05:08:37;;;;;;;3.05;1.50;;;;;;;;;;5008505;28;20049;-52
2021/08/11 05:11:04;;;;;;;2.03;1.90;;;;;;;;;;4995098;28;20641;-50
2021/08/11 05:13:31;;;;;;;2.42;2.28;;;;;;;;;;5007718;28;20459;-52
2021/08/11 05:15:58;;;;;;;3.22;1.75;;;;;;;;;;5008660;28;20026;-52
2021/08/11 05:18:24;;;;;;;4.15;1.33;;;;;;;;;;5009267;28;20053;-52
2021/08/11 05:20:52;;;;;;;3.50;1.88;;;;;;;;;;5007538;28;20053;-51
2021/08/11 05:23:18;;;;;;;2.50;1.67;;;;;;;;;;4992040;28;20038;-52
2021/08/11 05:25:46;;;;;;;3.40;1.60;;;;;;;;;;5002791;28;20491;-51
2021/08/11 05:28:12;;;;;;;2.22;1.40;;;;;;;;;;4998055;28;20426;-52
2021/08/11 05:30:39;;;;;;;2.60;1.63;;;;;;;;;;5001413;28;20057;-51
2021/08/11 05:33:07;;;;;;;4.82;1.40;;;;;;;;;;5003956;28;20189;-51
2021/08/11 05:35:33;;;;;;;3.47;1.42;;;;;;;;;;4993395;28;20081;-47
2021/08/11 05:38:01;;;;;;;1.73;1.33;;;;;;;;;;5000505;28;20085;-51
2021/08/11 05:40:27;;;;;;;3.25;1.20;;;;;;;;;;4999261;28;20133;-50
2021/08/11 05:42:54;;;;;;;1.50;1.30;;;;;;;;;;5021298;28;20104;-51
2021/08/11 05:45:21;;;;;;;1.85;1.70;;;;;;;;;;5007305;28;20038;-52
2021/08/11 05:47:48;;;;;;;4.18;1.60;;;;;;;;;;5012449;28;20037;-51
2021/08/11 05:50:14;;;;;;;2.90;1.48;;;;;;;;;;4999977;28;20062;-48
2021/08/11 05:52:41;;;;;;;2.40;1.00;;;;;;;;;;5001027;28;20121;-51
2021/08/11 05:55:08;;;;;;;1.65;1.55;;;;;;;;;;4992644;28;20046;-53
2021/08/11 05:57:41;;;;;;;6.18;1.42;;;;;;;;;;5005762;28;20151;-51
2021/08/11 06:00:09;;;;;;;2.50;1.25;;;;;;;;;;4999210;28;20064;-51
2021/08/11 06:02:44;;;;;;;5.80;1.08;;;;;;;;;;5009947;28;20046;-50
2021/08/11 06:05:11;;;;;;;2.15;1.30;;;;;;;;;;5006176;28;20077;-49
2021/08/11 06:07:38;;;;;;;3.13;1.20;;;;;;;;;;4990953;28;20471;-51
2021/08/11 06:10:06;;;;;;;3.80;1.30;;;;;;;;;;5009647;28;20038;-48
2021/08/11 06:12:33;;;;;;;1.10;1.00;;;;;;;;;;5006880;28;20448;-53
2021/08/11 06:14:59;;;;;;;1.77;1.33;;;;;;;;;;4994066;28;20039;-51
2021/08/11 06:17:26;;;;;;;4.68;1.10;;;;;;;;;;5003010;28;20054;-51
2021/08/11 06:19:53;;;;;;;2.65;1.30;;;;;;;;;;5007414;28;20051;-50
2021/08/11 06:22:20;;;;;;;1.73;1.05;;;;;;;;;;5008189;28;20049;-52
2021/08/11 06:24:46;;;;;;;3.15;1.00;;;;;;;;;;5007917;28;20065;-52
2021/08/11 06:27:13;;;;;;;3.47;1.23;;;;;;;;;;5008405;28;20112;-50
2021/08/11 06:29:40;;;;;;;3.88;1.27;;;;;;;;;;5003610;28;20475;-52
2021/08/11 06:32:06;;;;;;;5.40;1.42;;;;;;;;;;5004714;28;20041;-53
2021/08/11 06:34:33;;;;;;;6.75;1.15;;;;;;;;;;5000441;28;20038;-53
2021/08/11 06:37:00;;;;;;;4.40;1.58;;;;;;;;;;4999145;28;20062;-52
2021/08/11 06:39:27;;;;;;;6.65;1.38;;;;;;;;;;5009520;28;20034;-52
2021/08/11 06:41:53;;;;;;;3.22;1.10;;;;;;;;;;5007080;28;20045;-51
2021/08/11 06:44:20;;;;;;;2.88;1.10;;;;;;;;;;5003212;28;20512;-51
2021/08/11 06:46:47;;;;;;;1.10;1.00;;;;;;;;;;4999377;28;20482;-53
2021/08/11 06:49:14;;;;;;;7.00;1.20;;;;;;;;;;5000848;28;20088;-51
2021/08/11 06:51:40;;;;;;;3.40;1.20;;;;;;;;;;5008870;28;20057;-52
2021/08/11 06:54:10;;;;;;;1.10;1.10;;;;;;;;;;5006355;28;20097;-50
2021/08/11 06:56:36;;;;;;;4.70;1.67;;;;;;;;;;4998385;28;20041;-51
2021/08/11 06:59:03;;;;;;;4.25;1.05;;;;;;;;;;5001371;28;20475;-50
2021/08/11 07:01:30;;;;;;;2.15;1.10;;;;;;;;;;5006375;28;20046;-50
2021/08/11 07:03:57;;;;;;;3.92;1.35;;;;;;;;;;5008025;28;20057;-48
2021/08/11 07:06:24;;;;;;;2.40;1.05;;;;;;;;;;5016826;28;20339;-52
2021/08/11 07:08:51;;;;;;;8.23;1.48;;;;;;;;;;5022676;28;20132;-50
2021/08/11 07:11:18;;;;;;;7.82;2.00;;;;;;;;;;4999047;28;20038;-51
2021/08/11 07:13:45;;;;;;;3.50;1.20;;;;;;;;;;5005685;28;20041;-50
2021/08/11 07:16:12;;;;;;;4.97;1.00;;;;;;;;;;5002123;28;20092;-50
2021/08/11 07:18:39;;;;;;;1.88;0.90;;;;;;;;;;5009733;28;20046;-50
2021/08/11 07:21:05;;;;;;;2.85;1.17;;;;;;;;;;5010807;28;20045;-52
2021/08/11 07:23:32;;;;;;;1.55;1.27;;;;;;;;;;5011496;28;20046;-51
2021/08/11 07:25:59;;;;;;;2.85;1.27;;;;;;;;;;5008418;28;20501;-52
2021/08/11 07:28:26;;;;;;;5.43;0.95;;;;;;;;;;4997216;28;20065;-52
2021/08/11 07:30:52;;;;;;;6.82;1.00;;;;;;;;;;5004346;28;20051;-53
2021/08/11 07:33:22;;;;;;;6.95;0.90;;;;;;;;;;5002051;28;20647;-52
2021/08/11 07:35:48;;;;;;;2.45;1.05;;;;;;;;;;4995892;28;20063;-51
2021/08/11 07:38:15;;;;;;;1.73;0.80;;;;;;;;;;5006498;28;20112;-51
2021/08/11 07:40:42;;;;;;;1.13;0.80;;;;;;;;;;4999850;28;20038;-53
2021/08/11 07:43:09;;;;;;;2.33;0.73;;;;;;;;;;5012829;28;20100;-52
2021/08/11 07:45:36;;;;;;;2.05;0.80;;;;;;;;;;5010000;28;20496;-53
2021/08/11 07:48:04;;;;;;;1.33;0.98;;;;;;;;;;5001778;28;20042;-53
2021/08/11 07:50:32;;;;;;;1.35;0.70;;;;;;;;;;5010339;28;20368;-52
2021/08/11 07:52:59;;;;;;;5.13;1.35;;;;;;;;;;5009215;28;20430;-51
2021/08/11 07:55:26;;;;;;;7.88;1.02;;;;;;;;;;5010403;28;20041;-52
2021/08/11 07:57:53;;;;;;;3.17;0.70;;;;;;;;;;5009422;28;20360;-53
2021/08/11 08:00:22;;;;;;;3.95;0.70;;;;;;;;;;5011181;28;20038;-51
2021/08/11 08:02:49;;;;;;;2.72;1.00;;;;;;;;;;5005078;28;20071;-53
2021/08/11 08:05:18;;;;;;;2.30;0.60;;;;;;;;;;4998690;28;20053;-52
2021/08/11 08:07:44;;;;;;;3.13;0.57;;;;;;;;;;4999232;28;20646;-53
2021/08/11 08:10:11;;;;;;;2.80;0.60;;;;;;;;;;5004462;28;20426;-54
2021/08/11 08:12:39;;;;;;;2.72;0.60;;;;;;;;;;4991688;28;20042;-52
2021/08/11 08:15:07;;;;;;;1.08;0.60;;;;;;;;;;5011042;28;20034;-52
2021/08/11 08:17:33;;;;;;;2.25;0.60;;;;;;;;;;5002694;28;20556;-52
2021/08/11 08:20:13;;;;;;;1.25;0.60;;;;;;;;;;4996947;28;20042;-52
2021/08/11 08:22:40;;;;;;;2.80;0.75;;;;;;;;;;5005598;28;20038;-53
2021/08/11 08:25:06;;;;;;;0.60;0.60;;;;;;;;;;4996109;28;20470;-52
2021/08/11 08:27:33;;;;;;;2.45;0.60;;;;;;;;;;5001534;28;20046;-53
2021/08/11 08:30:00;;;;;;;3.97;0.50;;;;;;;;;;5004610;28;20038;-53
2021/08/11 08:32:29;;;;;;;2.00;0.60;;;;;;;;;;4994555;28;20050;-53
2021/08/11 08:34:56;;;;;;;0.70;0.60;;;;;;;;;;5005769;28;20487;-52
2021/08/11 08:37:27;;;;;;;1.73;0.50;;;;;;;;;;4996243;28;20044;-52
2021/08/11 08:39:54;;;;;;;1.42;0.50;;;;;;;;;;5011475;28;20037;-53
2021/08/11 08:42:21;;;;;;;0.75;0.50;;;;;;;;;;5009629;28;20129;-52
2021/08/11 08:44:47;;;;;;;4.18;0.50;;;;;;;;;;4995168;28;20469;-51
2021/08/11 08:47:15;;;;;;;1.83;0.47;;;;;;;;;;5004271;28;20415;-53
2021/08/11 08:49:43;;;;;;;2.58;1.02;;;;;;;;;;5007033;28;20723;-50
2021/08/11 08:52:10;;;;;;;1.15;0.40;;;;;;;;;;4996063;28;20038;-53
2021/08/11 08:54:37;;;;;;;1.67;0.40;;;;;;;;;;5004026;28;20043;-52
2021/08/11 08:57:04;;;;;;;2.80;0.40;;;;;;;;;;5009463;28;20371;-52
2021/08/11 08:59:31;;;;;;;4.78;0.60;;;;;;;;;;5003197;28;20043;-50
2021/08/11 09:01:57;;;;;;;3.30;0.40;;;;;;;;;;5002294;28;20038;-52
2021/08/11 09:04:24;;;;;;;1.05;0.43;;;;;;;;;;4995635;28;20057;-53
2021/08/11 09:06:51;;;;;;;0.60;0.60;;;;;;;;;;5004979;28;20052;-51
2021/08/11 09:09:18;;;;;;;2.53;0.50;;;;;;;;;;5008727;28;20047;-52
2021/08/11 09:11:45;;;;;;;3.10;0.65;;;;;;;;;;5010593;28;20124;-52
2021/08/11 09:14:20;;;;;;;1.15;0.40;;;;;;;;;;5008535;28;20084;-54
2021/08/11 09:16:51;;;;;;;6.15;0.50;;;;;;;;;;4992687;28;20383;-53
2021/08/11 09:19:18;;;;;;;5.28;0.50;;;;;;;;;;5008057;28;20048;-52
2021/08/11 09:22:02;;;;;;;1.85;0.40;;;;;;;;;;5008609;28;20069;-53
2021/08/11 09:24:33;;;;;;;0.90;0.40;;;;;;;;;;5009827;28;20060;-53
2021/08/11 09:27:19;;;;;;;1.33;0.40;;;;;;;;;;5007179;28;20045;-53
2021/08/11 09:30:02;;;;;;;1.77;0.40;;;;;;;;;;5007168;28;20398;-52
2021/08/11 09:32:29;;;;;;;2.42;0.47;;;;;;;;;;4999066;28;20410;-53
2021/08/11 09:34:56;;;;;;;1.65;0.40;;;;;;;;;;5007959;28;20049;-52
2021/08/11 09:37:52;;;;;;;1.20;0.73;;;;;;;;;;5007723;28;20058;-54
2021/08/11 09:40:19;;;;;;;4.07;0.40;;;;;;;;;;5025522;28;20056;-53
2021/08/11 09:42:46;;;;;;;3.47;0.40;;;;;;;;;;5024439;28;20080;-52
2021/08/11 09:45:15;;;;;;;3.30;1.05;;;;;;;;;;5009328;28;20061;-52
2021/08/11 09:48:01;;;;;;;2.88;0.40;;;;;;;;;;5024305;28;20077;-54
2021/08/11 09:50:46;;;;;;;1.67;0.47;;;;;;;;;;5017135;28;20049;-53
2021/08/11 09:53:33;;;;;;;2.05;0.40;;;;;;;;;;5018370;28;20121;-52
2021/08/11 09:56:02;;;;;;;1.33;0.40;;;;;;;;;;5023319;28;20033;-53
2021/08/11 09:58:31;;;;;;;5.25;0.60;;;;;;;;;;5023720;28;20141;-53
2021/08/11 10:00:58;;;;;;;4.00;0.45;;;;;;;;;;5012788;28;20108;-52
2021/08/11 10:03:25;;;;;;;6.40;1.48;;;;;;;;;;5022451;28;20077;-53
2021/08/11 10:05:53;;;;;;;2.20;0.35;;;;;;;;;;5019457;28;20434;-54
2021/08/11 10:08:33;;;;;;;0.50;0.40;;;;;;;;;;5025167;28;20042;-52
2021/08/11 10:11:00;;;;;;;6.22;0.60;;;;;;;;;;5023226;28;20180;-53
2021/08/11 10:13:27;;;;;;;1.55;0.35;;;;;;;;;;5009459;28;20053;-54
2021/08/11 10:15:54;;;;;;;0.63;0.40;;;;;;;;;;5019633;28;20071;-53
2021/08/11 10:18:25;;;;;;;0.85;0.40;;;;;;;;;;5006711;28;20038;-55
2021/08/11 10:20:54;;;;;;;0.63;0.40;;;;;;;;;;5004437;28;20046;-52
2021/08/11 10:23:21;;;;;;;1.08;0.40;;;;;;;;;;5006047;28;20057;-53
2021/08/11 10:25:48;;;;;;;2.15;0.45;;;;;;;;;;5009648;28;20042;-54
2021/08/11 10:28:19;;;;;;;3.50;0.38;;;;;;;;;;5011576;28;20045;-54
2021/08/11 10:30:46;;;;;;;5.72;0.60;;;;;;;;;;5011138;28;20046;-53
2021/08/11 10:33:18;;;;;;;1.77;0.40;;;;;;;;;;5010113;28;20065;-53
2021/08/11 10:35:45;;;;;;;0.47;0.40;;;;;;;;;;5009236;28;20041;-53
2021/08/11 10:38:14;;;;;;;1.83;0.40;;;;;;;;;;4997296;28;20042;-54
2021/08/11 10:40:42;;;;;;;1.48;0.32;;;;;;;;;;5010893;28;20052;-52
2021/08/11 10:43:12;;;;;;;2.15;0.47;;;;;;;;;;5011969;28;20041;-54
2021/08/11 10:45:39;;;;;;;1.75;0.40;;;;;;;;;;5005464;28;20560;-53
2021/08/11 10:48:15;;;;;;;0.60;0.40;;;;;;;;;;5008121;28;20105;-54
2021/08/11 10:50:43;;;;;;;0.80;0.40;;;;;;;;;;5005578;28;20042;-54
2021/08/11 10:53:10;;;;;;;0.80;0.30;;;;;;;;;;5005431;28;20081;-54
2021/08/11 10:55:44;;;;;;;1.02;0.52;;;;;;;;;;5009927;28;20038;-53
2021/08/11 10:58:11;;;;;;;3.05;0.50;;;;;;;;;;4995788;28;20041;-54
2021/08/11 11:00:40;;;;;;;2.83;0.40;;;;;;;;;;5006027;28;20053;-54
2021/08/11 11:03:08;;;;;;;1.95;0.68;;;;;;;;;;4997111;28;20494;-53
2021/08/11 11:05:35;;;;;;;1.95;0.38;;;;;;;;;;5014076;28;20132;-54
2021/08/11 11:08:08;;;;;;;0.40;0.40;;;;;;;;;;5008724;28;20766;-55
2021/08/11 11:10:35;;;;;;;0.30;0.30;;;;;;;;;;5014291;28;20482;-53
2021/08/11 11:13:21;;;;;;;0.73;0.30;;;;;;;;;;5005543;28;20495;-53
2021/08/11 11:15:48;;;;;;;3.15;0.38;;;;;;;;;;5003555;28;20556;-53
2021/08/11 11:18:22;;;;;;;0.82;0.40;;;;;;;;;;5004247;28;20042;-53
2021/08/11 11:21:12;;;;;;;0.30;0.30;;;;;;;;;;5006686;28;20876;-53
2021/08/11 11:23:42;;;;;;;1.30;0.40;;;;;;;;;;5007297;28;20137;-53
2021/08/11 11:26:10;;;;;;;1.63;0.40;;;;;;;;;;5009955;28;20107;-54
2021/08/11 11:28:55;;;;;;;1.95;0.40;;;;;;;;;;5009595;28;20115;-54
2021/08/11 11:31:32;;;;;;;0.40;0.40;;;;;;;;;;5001230;28;20459;-53
2021/08/11 11:34:18;;;;;;;0.68;0.30;;;;;;;;;;5008108;28;20038;-53
2021/08/11 11:37:04;;;;;;;0.40;0.30;;;;;;;;;;5006333;28;20130;-54
2021/08/11 11:39:32;;;;;;;0.63;0.30;;;;;;;;;;5004688;28;20376;-54
2021/08/11 11:42:08;;;;;;;1.13;0.60;;;;;;;;;;5005758;28;20046;-54
2021/08/11 11:44:41;;;;;;;4.57;0.65;;;;;;;;;;5010135;28;20449;-54
2021/08/11 11:47:15;;;;;;;1.92;0.40;;;;;;;;;;4993672;28;20056;-54
2021/08/11 11:49:42;;;;;;;1.27;0.63;;;;;;;;;;5007127;28;20042;-54
2021/08/11 11:52:13;;;;;;;1.58;0.40;;;;;;;;;;5007030;28;20034;-54
2021/08/11 11:54:45;;;;;;;1.33;0.40;;;;;;;;;;4995521;28;20078;-52
2021/08/11 11:57:11;;;;;;;;;;;;;;;;;;5006332;28;20049;-54
2021/08/11 11:59:42;;;;;;;1.42;0.40;;;;;;;;;;4995748;28;20294;-54
2021/08/11 12:02:29;;;;;;;1.75;0.98;;;;;;;;;;5012189;28;20050;-54
2021/08/11 12:05:04;;;;;;;0.47;0.38;;;;;;;;;;5010130;28;20131;-55
2021/08/11 12:07:32;;;;;;;2.10;0.30;;;;;;;;;;5004302;28;20046;-53
2021/08/11 12:10:02;;;;;;;1.05;0.45;;;;;;;;;;5010473;28;20038;-53
2021/08/11 12:12:30;;;;;;;0.95;0.40;;;;;;;;;;5008135;28;20040;-55
2021/08/11 12:15:16;;;;;;;1.90;0.40;;;;;;;;;;5010897;28;20268;-55
2021/08/11 12:17:44;;;;;;;0.50;0.40;;;;;;;;;;5007850;28;20068;-54
2021/08/11 12:20:26;;;;;;;0.30;0.30;;;;;;;;;;5006532;28;20076;-55
2021/08/11 12:22:53;;;;;;;0.40;0.40;;;;;;;;;;4997736;28;20064;-55
2021/08/11 12:25:20;;;;;;;2.30;0.40;;;;;;;;;;5007274;28;20069;-52
2021/08/11 12:28:07;;;;;;;1.63;0.40;;;;;;;;;;4999519;28;20042;-44
2021/08/11 12:30:34;;;;;;;0.70;0.40;;;;;;;;;;5007695;28;20073;-44
2021/08/11 12:33:01;;;;;;;1.65;0.38;;;;;;;;;;5005222;28;20104;-44
2021/08/11 12:35:28;;;;;;;1.30;0.30;;;;;;;;;;5009227;28;20072;-44
2021/08/11 12:38:08;;;;;;;0.40;0.30;;;;;;;;;;5003519;28;20394;-43
2021/08/11 12:40:36;;;;;;;7.22;0.40;;;;;;;;;;5000842;28;20071;-44
2021/08/11 12:43:03;;;;;;;1.58;0.30;;;;;;;;;;5021697;28;20502;-44
2021/08/11 12:45:49;;;;;;;1.15;0.30;;;;;;;;;;5007165;28;20088;-45
2021/08/11 12:48:29;;;;;;;4.32;0.63;;;;;;;;;;4995531;28;20038;-44
2021/08/11 12:50:57;;;;;;;1.20;0.40;;;;;;;;;;5001787;28;20046;-44
2021/08/11 12:53:27;;;;;;;0.50;0.40;;;;;;;;;;5007155;28;20826;-45
2021/08/11 12:55:56;;;;;;;;;;;;;;;;;;5008893;28;20085;-44
2021/08/11 12:58:22;;;;;;;2.40;0.30;;;;;;;;;;5001254;28;20518;-47
2021/08/11 13:00:54;;;;;;;0.40;0.30;;;;;;;;;;4999552;28;20497;-46
2021/08/11 13:03:20;;;;;;;3.75;0.40;;;;;;;;;;4995667;28;20077;-43
2021/08/11 13:05:52;;;;;;;1.27;0.40;;;;;;;;;;5003554;28;20050;-45
2021/08/11 13:08:18;;;;;;;1.70;0.40;;;;;;;;;;5006697;28;20042;-47
2021/08/11 13:10:53;;;;;;;0.40;0.40;;;;;;;;;;5008353;28;20054;-45
2021/08/11 13:13:21;;;;;;;2.05;0.50;;;;;;;;;;5008768;28;20041;-44
2021/08/11 13:15:48;;;;;;;3.35;0.80;;;;;;;;;;4991622;28;20069;-44
2021/08/11 13:18:24;;;;;;;1.48;0.38;;;;;;;;;;5003359;28;20522;-44
2021/08/11 13:20:51;;;;;;;1.17;0.38;;;;;;;;;;4997904;28;20038;-46
2021/08/11 13:23:18;;;;;;;0.38;0.30;;;;;;;;;;4998001;28;20097;-44
2021/08/11 13:25:45;;;;;;;2.08;0.52;;;;;;;;;;5005988;28;20084;-48
2021/08/11 13:28:13;;;;;;;0.40;0.40;;;;;;;;;;5008862;28;20030;-45
2021/08/11 13:30:40;;;;;;;0.80;0.52;;;;;;;;;;5009463;28;20056;-43
2021/08/11 13:33:08;;;;;;;0.30;0.30;;;;;;;;;;5009027;28;20482;-44
2021/08/11 13:35:35;;;;;;;0.40;0.30;;;;;;;;;;5001596;28;20149;-44
2021/08/11 13:38:02;;;;;;;1.63;0.30;;;;;;;;;;5006160;28;20053;-44
2021/08/11 13:40:30;;;;;;;5.05;0.63;;;;;;;;;;4996232;28;20445;-44
2021/08/11 13:42:57;;;;;;;2.47;0.32;;;;;;;;;;4999556;28;20391;-44
2021/08/11 13:45:24;;;;;;;1.05;0.30;;;;;;;;;;5000564;28;20549;-46
2021/08/11 13:47:51;;;;;;;0.73;0.47;;;;;;;;;;5009506;28;20037;-45
2021/08/11 13:50:17;;;;;;;1.65;0.30;;;;;;;;;;5007593;28;20041;-44
2021/08/11 13:52:45;;;;;;;1.55;0.30;;;;;;;;;;4998272;28;20034;-44
2021/08/11 13:55:12;;;;;;;0.55;0.52;;;;;;;;;;4999949;28;20038;-43
2021/08/11 13:57:40;;;;;;;2.72;0.40;;;;;;;;;;5002813;28;20073;-44
2021/08/11 14:00:07;;;;;;;2.38;0.40;;;;;;;;;;4992420;28;20042;-44
2021/08/11 14:02:35;;;;;;;1.42;0.40;;;;;;;;;;5011821;28;20052;-46
2021/08/11 14:05:02;;;;;;;0.52;0.40;;;;;;;;;;5012119;28;20042;-44
2021/08/11 14:07:30;;;;;;;4.43;0.40;;;;;;;;;;5007459;28;20486;-46
2021/08/11 14:09:56;;;;;;;0.30;0.30;;;;;;;;;;5006777;28;20517;-46
2021/08/11 14:12:23;;;;;;;0.30;0.30;;;;;;;;;;4995090;28;20042;-44
2021/08/11 14:14:50;;;;;;;0.40;0.40;;;;;;;;;;5012033;28;20117;-46
2021/08/11 14:17:19;;;;;;;1.48;0.30;;;;;;;;;;5010609;28;20038;-44
2021/08/11 14:19:46;;;;;;;2.47;0.30;;;;;;;;;;5010172;28;20093;-43
2021/08/11 14:22:13;;;;;;;0.47;0.40;;;;;;;;;;5007870;28;20046;-47
2021/08/11 14:24:40;;;;;;;0.60;0.60;;;;;;;;;;5008920;28;20490;-44
2021/08/11 14:27:09;;;;;;;0.40;0.40;;;;;;;;;;5005495;28;20121;-45
2021/08/11 14:29:36;;;;;;;0.50;0.30;;;;;;;;;;5000799;28;20038;-45
2021/08/11 14:32:03;;;;;;;0.50;0.40;;;;;;;;;;5012577;28;20042;-46
2021/08/11 14:34:29;;;;;;;1.40;0.30;;;;;;;;;;5010779;28;20041;-44
2021/08/11 14:36:56;;;;;;;1.65;0.30;;;;;;;;;;5004487;28;20099;-44
2021/08/11 14:39:23;;;;;;;1.85;0.30;;;;;;;;;;5007957;28;20042;-45
2021/08/11 14:41:49;;;;;;;2.17;0.30;;;;;;;;;;5009338;28;20050;-44
2021/08/11 14:44:16;;;;;;;0.30;0.30;;;;;;;;;;5012179;28;20041;-46
2021/08/11 14:46:43;;;;;;;1.02;0.40;;;;;;;;;;5007216;28;20100;-45
2021/08/11 14:49:10;;;;;;;1.20;0.30;;;;;;;;;;4998731;28;20038;-45
2021/08/11 14:51:36;;;;;;;1.55;0.30;;;;;;;;;;5004561;28;20050;-44
2021/08/11 14:54:03;;;;;;;0.47;0.30;;;;;;;;;;5012041;28;20498;-44